createdAt,value
2018-12-23T00:01:30.394Z,73.04
2018-12-23T00:03:36.617Z,72.85
2018-12-23T00:05:43.346Z,73.04
2018-12-23T00:07:49.726Z,73.72
2018-12-23T00:09:56.043Z,72.92
2018-12-23T00:12:02.228Z,73.41
2018-12-23T00:14:12.363Z,73.14
2018-12-23T00:16:18.907Z,72.46
2018-12-23T00:18:25.180Z,72.96
2018-12-23T00:20:32.415Z,72.97
2018-12-23T00:22:39.358Z,72.95
2018-12-23T00:24:45.498Z,73.44
2018-12-23T00:26:53.427Z,72.94
2018-12-23T00:29:00.907Z,72.53
2018-12-23T00:31:06.994Z,72.93
2018-12-23T00:33:16.161Z,72.74
2018-12-23T00:38:29.917Z,73.01
2018-12-23T00:40:50.093Z,72.99
2018-12-23T00:43:09.686Z,73.02
2018-12-23T00:45:31.100Z,73.00
2018-12-23T00:47:52.696Z,72.92
2018-12-23T00:50:12.786Z,72.92
2018-12-23T00:52:33.426Z,72.90
2018-12-23T00:54:53.871Z,72.83
2018-12-23T00:57:13.869Z,72.78
2018-12-23T00:59:34.263Z,72.68
2018-12-23T01:01:53.639Z,72.64
2018-12-23T01:04:14.319Z,72.60
2018-12-23T01:06:34.569Z,72.51
2018-12-23T01:08:54.588Z,72.44
2018-12-23T01:11:14.059Z,72.39
2018-12-23T01:13:34.949Z,72.28
2018-12-23T01:16:04.607Z,72.29
2018-12-23T01:21:21.435Z,72.26
2018-12-23T01:23:44.853Z,72.21
2018-12-23T01:26:32.465Z,72.16
2018-12-23T01:29:08.899Z,72.12
2018-12-23T01:31:30.263Z,72.10
2018-12-23T01:33:52.025Z,72.09
2018-12-23T01:36:19.667Z,72.14
2018-12-23T01:39:01.640Z,72.21
2018-12-23T01:41:23.522Z,72.28
2018-12-23T01:43:43.234Z,72.34
2018-12-23T01:46:04.615Z,72.42
2018-12-23T01:48:25.276Z,72.49
2018-12-23T01:50:46.942Z,72.57
2018-12-23T01:53:07.394Z,72.63
2018-12-23T01:55:28.080Z,72.72
2018-12-23T01:57:50.310Z,72.75
2018-12-23T02:00:12.004Z,72.78
2018-12-23T02:02:34.099Z,72.81
2018-12-23T02:04:53.843Z,72.79
2018-12-23T02:07:16.817Z,72.79
2018-12-23T02:09:49.808Z,72.81
2018-12-23T02:12:09.286Z,72.83
2018-12-23T02:14:29.986Z,72.85
2018-12-23T02:16:53.937Z,72.81
2018-12-23T02:19:17.178Z,72.82
2018-12-23T02:21:37.398Z,72.86
2018-12-23T02:23:59.226Z,72.91
2018-12-23T02:26:19.258Z,72.96
2018-12-23T02:28:37.747Z,72.98
2018-12-23T02:30:57.821Z,72.99
2018-12-23T02:33:17.504Z,73.02
2018-12-23T02:35:38.136Z,73.05
2018-12-23T02:37:58.242Z,73.06
2018-12-23T02:40:17.708Z,73.10
2018-12-23T02:42:37.207Z,73.14
2018-12-23T02:44:55.589Z,73.18
2018-12-23T02:47:14.051Z,73.21
2018-12-23T02:49:34.053Z,73.24
2018-12-23T02:51:42.673Z,73.28
2018-12-23T02:54:02.964Z,73.30
2018-12-23T02:56:22.623Z,73.31
2018-12-23T02:58:42.448Z,73.27
2018-12-23T03:01:02.787Z,73.25
2018-12-23T03:03:22.683Z,73.23
2018-12-23T03:05:42.388Z,73.20
2018-12-23T03:08:02.784Z,73.14
2018-12-23T03:10:22.201Z,73.04
2018-12-23T03:12:41.874Z,72.96
2018-12-23T03:15:01.381Z,72.89
2018-12-23T03:17:21.469Z,72.83
2018-12-23T03:19:40.820Z,72.79
2018-12-23T03:22:01.518Z,72.79
2018-12-23T03:24:21.531Z,72.79
2018-12-23T03:26:41.396Z,72.76
2018-12-23T03:29:02.012Z,72.76
2018-12-23T03:31:21.894Z,72.75
2018-12-23T03:33:41.262Z,72.74
2018-12-23T03:36:00.725Z,72.75
2018-12-23T03:38:20.154Z,72.76
2018-12-23T03:40:39.662Z,72.73
2018-12-23T03:42:59.206Z,72.70
2018-12-23T03:45:19.354Z,72.63
2018-12-23T03:47:39.418Z,72.56
2018-12-23T03:49:57.821Z,72.54
2018-12-23T03:52:16.113Z,72.54
2018-12-23T03:54:35.507Z,72.57
2018-12-23T03:56:54.878Z,72.56
2018-12-23T03:59:14.995Z,72.54
2018-12-23T04:01:33.553Z,72.49
2018-12-23T04:03:53.703Z,72.45
2018-12-23T04:06:13.558Z,72.45
2018-12-23T04:08:32.837Z,72.44
2018-12-23T04:10:52.109Z,72.48
2018-12-23T04:13:12.514Z,72.52
2018-12-23T04:15:32.282Z,72.58
2018-12-23T04:17:50.570Z,72.59
2018-12-23T04:20:10.668Z,72.65
2018-12-23T04:22:30.355Z,72.68
2018-12-23T04:24:50.115Z,72.70
2018-12-23T04:27:09.662Z,72.71
2018-12-23T04:29:29.604Z,72.67
2018-12-23T04:31:49.186Z,72.65
2018-12-23T04:34:09.243Z,72.63
2018-12-23T04:36:34.316Z,72.58
2018-12-23T04:38:51.129Z,72.54
2018-12-23T04:41:10.768Z,72.50
2018-12-23T04:43:30.870Z,72.47
2018-12-23T04:45:49.428Z,72.43
2018-12-23T04:48:09.628Z,72.37
2018-12-23T04:50:28.159Z,72.34
2018-12-23T04:52:49.332Z,72.33
2018-12-23T04:55:08.886Z,72.36
2018-12-23T04:57:27.226Z,72.40
2018-12-23T04:59:47.428Z,72.41
2018-12-23T05:02:06.745Z,72.38
2018-12-23T05:04:25.066Z,72.37
2018-12-23T05:06:45.017Z,72.33
2018-12-23T05:09:05.074Z,72.32
2018-12-23T05:11:26.024Z,72.31
2018-12-23T05:13:44.296Z,72.33
2018-12-23T05:16:04.189Z,72.34
2018-12-23T05:18:24.168Z,72.38
2018-12-23T05:20:43.841Z,72.41
2018-12-23T05:23:03.776Z,72.46
2018-12-23T05:25:23.123Z,72.51
2018-12-23T05:27:43.867Z,72.52
2018-12-23T05:30:03.776Z,72.53
2018-12-23T05:32:23.762Z,72.53
2018-12-23T05:34:43.742Z,72.51
2018-12-23T05:37:03.317Z,72.45
2018-12-23T05:39:23.426Z,72.43
2018-12-23T05:41:43.312Z,72.43
2018-12-23T05:44:03.462Z,72.43
2018-12-23T05:46:22.030Z,72.46
2018-12-23T05:48:42.661Z,72.50
2018-12-23T05:51:02.229Z,72.59
2018-12-23T05:53:22.010Z,72.65
2018-12-23T05:55:40.556Z,72.69
2018-12-23T05:58:00.195Z,72.74
2018-12-23T06:00:19.634Z,72.75
2018-12-23T06:02:38.957Z,72.70
2018-12-23T06:04:59.128Z,72.66
2018-12-23T06:07:17.453Z,72.62
2018-12-23T06:09:37.456Z,72.55
2018-12-23T06:11:57.130Z,72.50
2018-12-23T06:14:17.404Z,72.50
2018-12-23T06:16:36.709Z,72.46
2018-12-23T06:18:57.510Z,72.46
2018-12-23T06:21:17.661Z,72.47
2018-12-23T06:23:38.196Z,72.47
2018-12-23T06:25:57.787Z,72.44
2018-12-23T06:28:17.963Z,72.42
2018-12-23T06:30:37.618Z,72.34
2018-12-23T06:32:57.034Z,72.26
2018-12-23T06:35:16.440Z,72.18
2018-12-23T06:37:34.119Z,72.08
2018-12-23T06:39:54.660Z,72.06
2018-12-23T06:42:14.596Z,72.08
2018-12-23T06:44:34.229Z,72.08
2018-12-23T06:46:55.150Z,72.13
2018-12-23T06:49:15.294Z,72.19
2018-12-23T06:51:35.088Z,72.31
2018-12-23T06:53:55.035Z,72.39
2018-12-23T06:56:14.550Z,72.50
2018-12-23T06:58:33.936Z,72.59
2018-12-23T07:00:53.371Z,72.66
2018-12-23T07:03:13.138Z,72.70
2018-12-23T07:05:33.215Z,72.70
2018-12-23T07:07:52.774Z,72.74
2018-12-23T07:10:12.425Z,72.81
2018-12-23T07:12:32.258Z,72.87
2018-12-23T07:14:52.382Z,72.89
2018-12-23T07:17:12.345Z,72.92
2018-12-23T07:19:33.405Z,72.91
2018-12-23T07:21:52.913Z,72.93
2018-12-23T07:24:12.299Z,72.93
2018-12-23T07:26:32.075Z,72.93
2018-12-23T07:28:51.583Z,72.96
2018-12-23T07:31:11.329Z,72.97
2018-12-23T07:33:31.340Z,72.97
2018-12-23T07:35:50.806Z,72.96
2018-12-23T07:38:10.562Z,72.94
2018-12-23T07:40:30.310Z,72.90
2018-12-23T07:42:49.808Z,72.88
2018-12-23T07:45:09.746Z,72.89
2018-12-23T07:47:29.879Z,72.87
2018-12-23T07:49:48.314Z,72.87
2018-12-23T07:52:08.510Z,72.83
2018-12-23T07:54:28.020Z,72.83
2018-12-23T07:56:47.737Z,72.81
2018-12-23T07:59:07.603Z,72.82
2018-12-23T08:01:27.104Z,72.81
2018-12-23T08:03:46.601Z,72.81
2018-12-23T08:06:06.475Z,72.81
2018-12-23T08:08:24.777Z,72.79
2018-12-23T08:10:44.166Z,72.78
2018-12-23T08:13:11.386Z,72.74
2018-12-23T08:15:31.446Z,72.71
2018-12-23T08:17:51.071Z,72.73
2018-12-23T08:20:11.807Z,72.68
2018-12-23T08:22:32.035Z,72.65
2018-12-23T08:24:52.368Z,72.67
2018-12-23T08:27:12.369Z,72.65
2018-12-23T08:29:32.727Z,72.64
2018-12-23T08:31:52.378Z,72.67
2018-12-23T08:34:11.044Z,72.65
2018-12-23T08:36:31.169Z,72.68
2018-12-23T08:38:50.931Z,72.66
2018-12-23T08:41:11.369Z,72.63
2018-12-23T08:43:31.824Z,72.66
2018-12-23T08:45:51.433Z,72.64
2018-12-23T08:48:11.564Z,72.63
2018-12-23T08:50:31.146Z,72.60
2018-12-23T08:52:50.736Z,72.56
2018-12-23T08:55:10.936Z,72.52
2018-12-23T08:57:30.474Z,72.52
2018-12-23T08:59:50.724Z,72.42
2018-12-23T09:02:10.567Z,72.34
2018-12-23T09:04:28.987Z,72.31
2018-12-23T09:06:49.239Z,72.22
2018-12-23T09:09:08.121Z,72.10
2018-12-23T09:11:27.499Z,72.06
2018-12-23T09:13:46.899Z,71.95
2018-12-23T09:16:05.339Z,71.82
2018-12-23T09:18:25.247Z,71.71
2018-12-23T09:20:45.059Z,71.65
2018-12-23T09:23:04.779Z,71.55
2018-12-23T09:25:23.077Z,71.50
2018-12-23T09:27:43.280Z,71.40
2018-12-23T09:30:03.364Z,71.33
2018-12-23T09:32:22.855Z,71.23
2018-12-23T09:34:42.627Z,71.19
2018-12-23T09:37:02.516Z,71.17
2018-12-23T09:39:22.694Z,71.08
2018-12-23T09:41:42.075Z,70.98
2018-12-23T09:44:01.820Z,70.88
2018-12-23T09:46:21.520Z,70.80
2018-12-23T09:48:41.993Z,70.72
2018-12-23T09:51:01.898Z,70.65
2018-12-23T09:53:22.078Z,70.55
2018-12-23T09:55:41.876Z,70.44
2018-12-23T09:58:01.625Z,70.38
2018-12-23T10:00:22.100Z,70.25
2018-12-23T10:02:40.622Z,70.21
2018-12-23T10:05:00.836Z,70.07
2018-12-23T10:07:09.139Z,70.00
2018-12-23T10:09:29.160Z,69.88
2018-12-23T10:11:49.282Z,69.76
2018-12-23T10:14:09.092Z,69.63
2018-12-23T10:16:29.115Z,69.59
2018-12-23T10:18:48.432Z,69.40
2018-12-23T10:21:10.145Z,69.44
2018-12-23T10:23:29.278Z,69.28
2018-12-23T10:25:48.645Z,69.22
2018-12-23T10:28:07.428Z,69.13
2018-12-23T10:30:25.744Z,69.02
2018-12-23T10:32:45.402Z,68.88
2018-12-23T10:35:05.416Z,68.84
2018-12-23T10:37:24.789Z,68.76
2018-12-23T10:39:44.725Z,68.73
2018-12-23T10:42:03.968Z,68.69
2018-12-23T10:44:23.209Z,68.59
2018-12-23T10:46:43.181Z,68.54
2018-12-23T10:49:02.686Z,68.39
2018-12-23T10:51:22.629Z,68.28
2018-12-23T10:53:42.151Z,68.29
2018-12-23T10:56:02.584Z,68.34
2018-12-23T10:58:22.010Z,68.33
2018-12-23T11:00:41.722Z,68.22
2018-12-23T11:03:01.491Z,68.11
2018-12-23T11:05:21.641Z,68.05
2018-12-23T11:07:41.696Z,68.01
2018-12-23T11:10:02.305Z,68.05
2018-12-23T11:12:22.773Z,67.98
2018-12-23T11:14:42.327Z,67.93
2018-12-23T11:17:02.297Z,67.87
2018-12-23T11:19:22.492Z,67.80
2018-12-23T11:21:42.236Z,67.78
2018-12-23T11:24:02.047Z,67.72
2018-12-23T11:26:21.760Z,67.78
2018-12-23T11:28:41.959Z,67.77
2018-12-23T11:31:01.976Z,67.79
2018-12-23T11:33:22.039Z,67.85
2018-12-23T11:35:42.297Z,67.93
2018-12-23T11:38:02.758Z,67.95
2018-12-23T11:40:22.537Z,67.98
2018-12-23T11:42:42.694Z,67.97
2018-12-23T11:45:03.862Z,67.95
2018-12-23T11:47:23.865Z,68.04
2018-12-23T11:49:44.047Z,68.12
2018-12-23T11:52:04.585Z,68.16
2018-12-23T11:54:27.808Z,68.18
2018-12-23T11:56:47.356Z,68.22
2018-12-23T11:59:06.865Z,68.21
2018-12-23T12:01:26.349Z,68.25
2018-12-23T12:03:48.049Z,68.27
2018-12-23T12:06:08.205Z,68.32
2018-12-23T12:08:28.126Z,68.35
2018-12-23T12:10:48.412Z,68.36
2018-12-23T12:13:07.957Z,68.41
2018-12-23T12:15:27.476Z,68.48
2018-12-23T12:17:46.848Z,68.55
2018-12-23T12:20:07.992Z,68.57
2018-12-23T12:22:26.760Z,68.58
2018-12-23T12:24:46.707Z,68.54
2018-12-23T12:27:07.549Z,68.58
2018-12-23T12:29:28.193Z,68.63
2018-12-23T12:31:47.844Z,68.67
2018-12-23T12:34:07.644Z,68.71
2018-12-23T12:36:28.066Z,68.80
2018-12-23T12:38:52.138Z,68.86
2018-12-23T12:41:08.705Z,68.90
2018-12-23T12:43:28.466Z,68.90
2018-12-23T12:45:48.097Z,69.01
2018-12-23T12:48:07.826Z,69.04
2018-12-23T12:50:27.615Z,69.06
2018-12-23T12:52:47.169Z,69.12
2018-12-23T12:55:06.985Z,69.18
2018-12-23T12:57:26.538Z,69.24
2018-12-23T12:59:46.199Z,69.23
2018-12-23T13:02:05.707Z,69.18
2018-12-23T13:04:25.659Z,69.23
2018-12-23T13:06:45.673Z,69.25
2018-12-23T13:09:06.753Z,69.24
2018-12-23T13:11:27.112Z,69.19
2018-12-23T13:13:46.750Z,69.18
2018-12-23T13:16:06.464Z,69.13
2018-12-23T13:18:26.486Z,69.08
2018-12-23T13:20:44.994Z,69.07
2018-12-23T13:23:05.214Z,69.06
2018-12-23T13:25:25.099Z,69.07
2018-12-23T13:27:44.686Z,69.17
2018-12-23T13:30:04.268Z,69.25
2018-12-23T13:32:24.106Z,69.28
2018-12-23T13:34:44.624Z,69.25
2018-12-23T13:36:53.258Z,69.22
2018-12-23T13:39:13.547Z,69.17
2018-12-23T13:41:47.729Z,69.15
2018-12-23T13:44:38.070Z,69.13
2018-12-23T13:47:43.404Z,69.14
2018-12-23T13:50:22.678Z,69.14
2018-12-23T13:52:54.025Z,69.15
2018-12-23T13:55:32.865Z,69.16
2018-12-23T13:58:15.876Z,69.13
2018-12-23T14:00:41.041Z,69.11
2018-12-23T14:03:09.982Z,69.10
2018-12-23T14:06:00.897Z,69.07
2018-12-23T14:08:25.339Z,69.05
2018-12-23T14:11:25.615Z,69.04
2018-12-23T14:13:45.893Z,69.06
2018-12-23T14:16:06.015Z,69.11
2018-12-23T14:18:35.355Z,69.06
2018-12-23T14:20:55.882Z,69.05
2018-12-23T14:23:16.361Z,69.05
2018-12-23T14:25:37.747Z,69.01
2018-12-23T14:27:57.586Z,69.06
2018-12-23T14:30:17.852Z,69.10
2018-12-23T14:32:38.207Z,69.10
2018-12-23T14:34:58.183Z,69.14
2018-12-23T14:37:18.150Z,69.16
2018-12-23T14:39:37.766Z,69.21
2018-12-23T14:41:57.390Z,69.25
2018-12-23T14:44:17.619Z,69.22
2018-12-23T14:46:36.084Z,69.17
2018-12-23T14:48:55.908Z,69.14
2018-12-23T14:51:15.889Z,69.13
2018-12-23T14:53:34.232Z,69.11
2018-12-23T14:55:54.324Z,69.08
2018-12-23T14:58:13.730Z,69.07
2018-12-23T15:00:33.804Z,69.09
2018-12-23T15:05:47.123Z,69.19
2018-12-23T15:08:06.725Z,69.27
2018-12-23T15:10:15.049Z,69.27
2018-12-23T15:12:35.038Z,69.29
2018-12-23T15:14:53.544Z,69.31
2018-12-23T15:17:12.391Z,69.34
2018-12-23T15:19:32.128Z,69.33
2018-12-23T15:21:50.573Z,69.30
2018-12-23T15:24:10.648Z,69.29
2018-12-23T15:26:30.032Z,69.37
2018-12-23T15:28:50.042Z,69.38
2018-12-23T15:31:10.110Z,69.37
2018-12-23T15:33:29.858Z,69.41
2018-12-23T15:35:49.803Z,69.49
2018-12-23T15:38:10.040Z,69.51
2018-12-23T15:40:30.126Z,69.53
2018-12-23T15:42:48.683Z,69.52
2018-12-23T15:45:08.014Z,69.50
2018-12-23T15:47:27.765Z,69.49
2018-12-23T15:49:47.637Z,69.49
2018-12-23T15:52:07.055Z,69.48
2018-12-23T15:54:26.561Z,69.49
2018-12-23T15:56:46.237Z,69.52
2018-12-23T15:59:34.029Z,69.55
2018-12-23T16:02:06.751Z,69.63
2018-12-23T16:04:27.074Z,69.73
2018-12-23T16:06:47.619Z,69.87
2018-12-23T16:09:08.291Z,70.03
2018-12-23T16:11:28.403Z,70.17
2018-12-23T16:13:48.098Z,70.34
2018-12-23T16:16:08.556Z,70.43
2018-12-23T16:18:28.676Z,70.55
2018-12-23T16:20:47.702Z,70.75
2018-12-23T16:23:07.302Z,70.85
2018-12-23T16:25:27.202Z,70.97
2018-12-23T16:27:46.701Z,71.09
2018-12-23T16:30:07.142Z,71.18
2018-12-23T16:32:26.691Z,71.37
2018-12-23T16:34:46.249Z,71.44
2018-12-23T16:37:05.844Z,71.58
2018-12-23T16:39:24.609Z,71.58
2018-12-23T16:41:44.006Z,71.64
2018-12-23T16:44:03.699Z,71.65
2018-12-23T16:46:24.293Z,71.69
2018-12-23T16:48:44.136Z,71.73
2018-12-23T16:51:04.308Z,71.79
2018-12-23T16:53:24.126Z,71.84
2018-12-23T16:55:42.717Z,71.90
2018-12-23T16:58:02.825Z,71.96
2018-12-23T17:00:21.293Z,72.04
2018-12-23T17:02:41.228Z,72.06
2018-12-23T17:05:00.622Z,72.10
2018-12-23T17:07:20.087Z,72.15
2018-12-23T17:09:39.818Z,72.19
2018-12-23T17:11:59.948Z,72.23
2018-12-23T17:14:20.341Z,72.24
2018-12-23T17:16:39.843Z,72.25
2018-12-23T17:18:59.668Z,72.27
2018-12-23T17:21:18.510Z,72.31
2018-12-23T17:23:38.518Z,72.40
2018-12-23T17:25:58.969Z,72.44
2018-12-23T17:28:18.824Z,72.47
2018-12-23T17:30:27.445Z,72.50
2018-12-23T17:32:47.128Z,72.56
2018-12-23T17:35:06.115Z,72.63
2018-12-23T17:37:26.235Z,72.68
2018-12-23T17:39:46.646Z,72.69
2018-12-23T17:42:07.155Z,72.70
2018-12-23T17:44:26.660Z,72.72
2018-12-23T17:46:46.262Z,72.74
2018-12-23T17:49:06.180Z,72.79
2018-12-23T17:51:25.629Z,72.79
2018-12-23T17:53:46.139Z,72.89
2018-12-23T17:56:05.793Z,72.89
2018-12-23T17:58:25.929Z,72.96
2018-12-23T18:00:46.265Z,72.95
2018-12-23T18:03:05.822Z,72.99
2018-12-23T18:05:14.323Z,72.99
2018-12-23T18:07:34.484Z,73.02
2018-12-23T18:09:54.184Z,73.03
2018-12-23T18:12:13.758Z,73.07
2018-12-23T18:14:33.575Z,73.08
2018-12-23T18:16:53.832Z,73.10
2018-12-23T18:19:14.176Z,73.13
2018-12-23T18:21:34.285Z,73.15
2018-12-23T18:23:53.925Z,73.16
2018-12-23T18:26:14.106Z,73.15
2018-12-23T18:28:22.589Z,73.19
2018-12-23T18:31:01.891Z,73.26
2018-12-23T18:33:21.817Z,73.24
2018-12-23T18:35:41.859Z,73.26
2018-12-23T18:38:02.091Z,73.28
2018-12-23T18:40:23.161Z,73.36
2018-12-23T18:42:42.650Z,73.33
2018-12-23T18:45:02.185Z,73.40
2018-12-23T18:47:22.226Z,73.42
2018-12-23T18:49:42.503Z,73.43
2018-12-23T18:52:02.354Z,73.45
2018-12-23T18:54:22.555Z,73.45
2018-12-23T18:56:43.978Z,73.47
2018-12-23T18:59:04.092Z,73.46
2018-12-23T19:01:23.789Z,73.48
2018-12-23T19:03:43.264Z,73.49
2018-12-23T19:06:03.901Z,73.45
2018-12-23T19:08:27.260Z,73.45
2018-12-23T19:11:05.866Z,73.46
2018-12-23T19:13:45.100Z,73.50
2018-12-23T19:18:59.566Z,73.52
2018-12-23T19:27:09.607Z,73.57
2018-12-23T19:29:48.083Z,73.58
2018-12-23T19:32:31.857Z,73.60
2018-12-23T19:35:11.211Z,73.62
2018-12-23T19:37:42.662Z,73.63
2018-12-23T19:40:38.252Z,73.64
2018-12-23T19:43:16.856Z,73.67
2018-12-23T19:45:56.423Z,73.67
2018-12-23T19:48:55.650Z,73.74
2018-12-23T19:51:48.377Z,73.78
2018-12-23T19:54:30.404Z,73.89
2018-12-23T19:57:12.369Z,73.90
2018-12-23T19:59:51.724Z,73.93
2018-12-23T20:02:30.304Z,73.93
2018-12-23T20:05:08.984Z,73.96
2018-12-23T20:07:39.107Z,73.95
2018-12-23T20:10:04.716Z,73.91
2018-12-23T20:12:43.438Z,73.91
2018-12-23T20:15:22.068Z,73.92
2018-12-23T20:18:01.783Z,73.95
2018-12-23T20:21:04.296Z,73.99
2018-12-23T20:23:42.882Z,73.97
2018-12-23T20:29:03.918Z,73.96
2018-12-23T20:31:41.626Z,73.97
2018-12-23T20:34:20.020Z,73.97
2018-12-23T20:39:52.433Z,73.98
2018-12-23T20:42:31.396Z,73.96
2018-12-23T20:45:10.568Z,73.98
2018-12-23T20:47:52.522Z,73.96
2018-12-23T20:50:34.683Z,73.96
2018-12-23T20:56:04.689Z,74.01
2018-12-23T20:58:43.194Z,74.02
2018-12-23T21:01:21.692Z,74.01
2018-12-23T21:06:36.373Z,74.00
2018-12-23T21:09:15.744Z,73.98
2018-12-23T21:11:54.903Z,73.96
2018-12-23T21:14:32.287Z,73.95
2018-12-23T21:17:11.247Z,73.96
2018-12-23T21:19:50.632Z,73.98
2018-12-23T21:22:29.069Z,73.96
2018-12-23T21:28:01.205Z,73.96
2018-12-23T21:31:23.758Z,73.97
2018-12-23T21:34:25.129Z,73.95
2018-12-23T21:37:04.007Z,73.92
2018-12-23T21:40:09.317Z,73.87
2018-12-23T21:42:47.651Z,73.86
2018-12-23T21:45:26.838Z,73.88
2018-12-23T21:48:12.433Z,73.92
2018-12-23T21:50:31.344Z,73.91
2018-12-23T21:52:49.939Z,73.92
2018-12-23T21:55:58.018Z,73.91
2018-12-23T21:58:39.876Z,73.93
2018-12-23T22:01:45.606Z,73.88
2018-12-23T22:04:26.142Z,73.88
2018-12-23T22:07:07.467Z,73.89
2018-12-23T22:09:47.917Z,73.89
2018-12-23T22:12:26.345Z,73.88
2018-12-23T22:14:45.839Z,73.89
2018-12-23T22:17:05.666Z,73.90
2018-12-23T22:19:26.171Z,73.86
2018-12-23T22:21:46.301Z,73.88
2018-12-23T22:24:06.525Z,73.90
2018-12-23T22:26:26.030Z,73.89
2018-12-23T22:28:45.753Z,73.89
2018-12-23T22:31:05.068Z,73.88
2018-12-23T22:33:25.328Z,73.87
2018-12-23T22:35:44.689Z,73.85
2018-12-23T22:38:05.306Z,73.83
2018-12-23T22:40:25.291Z,73.83
2018-12-23T22:42:45.471Z,73.81
2018-12-23T22:45:06.577Z,73.81
2018-12-23T22:47:15.030Z,73.81
2018-12-23T22:49:35.144Z,73.80
2018-12-23T22:51:54.793Z,73.79
2018-12-23T22:54:15.488Z,73.81
2018-12-23T22:56:34.915Z,73.80
2018-12-23T22:58:54.868Z,73.79
2018-12-23T23:03:33.379Z,73.75
2018-12-23T23:05:53.630Z,73.71
2018-12-23T23:08:13.247Z,73.73
2018-12-23T23:10:33.028Z,73.74
2018-12-23T23:12:53.228Z,73.72
2018-12-23T23:15:02.343Z,73.71
2018-12-23T23:17:22.619Z,73.69
2018-12-23T23:19:46.769Z,73.69
2018-12-23T23:22:06.486Z,73.66
2018-12-23T23:24:26.055Z,73.64
2018-12-23T23:26:45.603Z,73.58
2018-12-23T23:29:05.360Z,73.59
2018-12-23T23:31:25.766Z,73.57
2018-12-23T23:33:44.172Z,73.54
2018-12-23T23:36:03.558Z,73.54
2018-12-23T23:38:23.544Z,73.50
2018-12-23T23:40:43.366Z,73.49
2018-12-23T23:43:02.843Z,73.48
2018-12-23T23:45:21.599Z,73.45
2018-12-23T23:47:40.063Z,73.46
2018-12-23T23:50:00.452Z,73.43
2018-12-23T23:52:20.140Z,73.38
2018-12-23T23:54:40.256Z,73.37
2018-12-23T23:56:48.541Z,73.35
2018-12-23T23:59:07.974Z,73.30
